createdAt,value
2019-05-18T00:03:38.339Z,10.03
2019-05-18T00:08:41.729Z,7.03
2019-05-18T00:13:45.126Z,6.45
2019-05-18T00:18:48.594Z,7.45
2019-05-18T00:23:52.230Z,7.50
2019-05-18T00:28:56.386Z,8.23
2019-05-18T00:33:59.777Z,7.78
2019-05-18T00:39:04.450Z,8.50
2019-05-18T00:44:07.847Z,7.85
2019-05-18T00:49:11.240Z,9.45
2019-05-18T00:54:14.737Z,7.45
2019-05-18T00:59:18.201Z,7.87
2019-05-18T01:04:21.661Z,9.78
2019-05-18T01:09:25.069Z,9.03
2019-05-18T01:14:28.685Z,7.97
2019-05-18T01:19:32.080Z,6.58
2019-05-18T01:24:35.478Z,8.68
2019-05-18T01:29:38.946Z,8.35
2019-05-18T01:34:42.368Z,7.12
2019-05-18T01:39:46.033Z,6.58
2019-05-18T01:44:49.661Z,8.45
2019-05-18T01:49:53.385Z,7.62
2019-05-18T01:54:56.783Z,8.65
2019-05-18T02:00:00.210Z,9.20
2019-05-18T02:05:04.674Z,13.90
2019-05-18T02:10:08.605Z,9.88
2019-05-18T02:15:12.331Z,7.35
2019-05-18T02:20:16.757Z,8.73
2019-05-18T02:25:21.053Z,8.50
2019-05-18T02:30:24.697Z,8.68
2019-05-18T02:35:28.093Z,10.38
2019-05-18T02:40:31.825Z,8.50
2019-05-18T02:45:35.221Z,9.05
2019-05-18T02:50:38.620Z,9.60
2019-05-18T02:55:42.014Z,9.20
2019-05-18T03:00:45.431Z,8.88
2019-05-18T03:05:48.898Z,9.58
2019-05-18T03:10:52.825Z,7.78
2019-05-18T03:15:56.218Z,7.85
2019-05-18T03:21:00.090Z,12.30
2019-05-18T03:26:03.506Z,10.88
2019-05-18T03:31:06.880Z,10.28
2019-05-18T03:36:10.373Z,7.85
2019-05-18T03:41:13.850Z,8.15
2019-05-18T03:46:17.336Z,9.55
2019-05-18T03:51:20.782Z,7.87
2019-05-18T03:56:24.125Z,7.75
2019-05-18T04:01:27.608Z,9.93
2019-05-18T04:06:31.026Z,8.03
2019-05-18T04:11:34.418Z,8.18
2019-05-18T04:16:38.149Z,6.50
2019-05-18T04:21:41.893Z,7.55
2019-05-18T04:26:45.313Z,9.45
2019-05-18T04:31:48.701Z,9.15
2019-05-18T04:36:52.132Z,9.55
2019-05-18T04:41:55.521Z,8.30
2019-05-18T04:46:59.225Z,11.28
2019-05-18T04:52:02.971Z,9.13
2019-05-18T04:57:06.596Z,9.00
2019-05-18T05:02:10.011Z,11.20
2019-05-18T05:07:13.497Z,11.53
2019-05-18T05:12:16.889Z,12.82
2019-05-18T05:17:20.357Z,12.70
2019-05-18T05:22:23.809Z,13.50
2019-05-18T05:27:27.195Z,9.53
2019-05-18T05:32:30.873Z,12.25
2019-05-18T05:37:34.318Z,10.45
2019-05-18T05:42:37.753Z,13.62
2019-05-18T05:47:41.148Z,12.25
2019-05-18T05:52:44.842Z,13.62
2019-05-18T05:57:48.230Z,11.03
2019-05-18T06:02:51.633Z,12.40
2019-05-18T06:07:55.079Z,12.15
2019-05-18T06:12:58.513Z,10.35
2019-05-18T06:18:01.900Z,9.65
2019-05-18T06:23:05.295Z,9.45
2019-05-18T06:28:08.690Z,11.05
2019-05-18T06:33:12.463Z,13.83
2019-05-18T06:38:15.849Z,11.65
2019-05-18T06:43:19.281Z,9.80
2019-05-18T06:48:22.691Z,10.30
2019-05-18T06:53:26.086Z,10.15
2019-05-18T06:58:30.221Z,9.83
2019-05-18T07:03:33.687Z,9.40
2019-05-18T07:08:37.058Z,9.20
2019-05-18T07:13:40.491Z,8.63
2019-05-18T07:18:43.883Z,9.65
2019-05-18T07:23:47.377Z,9.03
2019-05-18T07:28:50.809Z,8.08
2019-05-18T07:33:54.234Z,9.03
2019-05-18T07:38:57.630Z,9.15
2019-05-18T07:44:01.079Z,10.48
2019-05-18T07:49:04.574Z,8.98
2019-05-18T07:54:08.015Z,10.82
2019-05-18T07:59:11.439Z,10.53
2019-05-18T08:04:14.871Z,12.30
2019-05-18T08:09:18.546Z,9.65
2019-05-18T08:14:22.027Z,10.50
2019-05-18T08:19:25.440Z,8.93
2019-05-18T08:24:28.815Z,9.60
2019-05-18T08:29:32.215Z,11.18
2019-05-18T08:34:35.649Z,10.23
2019-05-18T08:39:39.066Z,10.50
2019-05-18T08:44:42.965Z,10.70
2019-05-18T08:49:46.678Z,11.35
2019-05-18T08:54:50.109Z,9.05
2019-05-18T08:59:53.502Z,9.75
2019-05-18T09:04:56.892Z,9.10
2019-05-18T09:10:00.289Z,10.50
2019-05-18T09:15:05.458Z,10.78
2019-05-18T09:20:09.517Z,8.73
2019-05-18T09:25:14.789Z,12.75
2019-05-18T09:30:18.535Z,9.05
2019-05-18T09:35:21.961Z,8.60
2019-05-18T09:40:25.353Z,10.53
2019-05-18T09:45:28.778Z,9.38
2019-05-18T09:50:32.478Z,9.83
2019-05-18T09:55:35.877Z,10.85
2019-05-18T10:00:39.347Z,13.60
2019-05-18T10:05:43.019Z,9.88
2019-05-18T10:10:46.765Z,7.60
2019-05-18T10:15:50.194Z,9.08
2019-05-18T10:20:53.879Z,9.93
2019-05-18T10:25:57.313Z,11.38
2019-05-18T10:31:01.010Z,10.10
2019-05-18T10:36:05.021Z,10.00
2019-05-18T10:41:08.583Z,11.65
2019-05-18T10:46:11.988Z,13.05
2019-05-18T10:51:15.391Z,9.13
2019-05-18T10:56:19.018Z,8.95
2019-05-18T11:01:22.417Z,7.83
2019-05-18T11:06:25.803Z,7.12
2019-05-18T11:11:29.549Z,7.70
2019-05-18T11:16:33.013Z,7.28
2019-05-18T11:21:36.433Z,9.50
2019-05-18T11:26:39.920Z,6.85
2019-05-18T11:31:43.308Z,4.70
2019-05-18T11:36:46.701Z,5.47
2019-05-18T11:41:50.104Z,6.92
2019-05-18T11:46:53.767Z,3.98
2019-05-18T11:51:57.490Z,5.12
2019-05-18T11:57:00.908Z,8.30
2019-05-18T12:02:04.550Z,7.08
2019-05-18T12:07:08.061Z,7.25
2019-05-18T12:12:11.451Z,5.58
2019-05-18T12:17:14.935Z,10.05
2019-05-18T12:22:18.311Z,8.60
2019-05-18T12:27:21.708Z,6.20
2019-05-18T12:32:25.133Z,5.00
2019-05-18T12:37:28.529Z,6.25
2019-05-18T12:42:31.920Z,5.15
2019-05-18T12:47:35.482Z,6.08
2019-05-18T12:52:38.874Z,6.33
2019-05-18T12:57:42.264Z,7.17
2019-05-18T13:02:45.690Z,4.60
2019-05-18T13:07:49.091Z,5.62
2019-05-18T13:12:52.486Z,6.03
2019-05-18T13:17:55.879Z,5.03
2019-05-18T13:22:59.376Z,5.83
2019-05-18T13:28:02.781Z,3.40
2019-05-18T13:33:06.177Z,3.67
2019-05-18T13:38:09.564Z,3.50
2019-05-18T13:43:12.965Z,6.53
2019-05-18T13:48:16.393Z,4.20
2019-05-18T13:53:19.847Z,6.12
2019-05-18T13:58:23.238Z,4.83
2019-05-18T14:03:26.629Z,6.60
2019-05-18T14:08:30.058Z,13.35
2019-05-18T14:13:33.533Z,4.70
2019-05-18T14:18:37.310Z,4.03
2019-05-18T14:23:41.014Z,4.50
2019-05-18T14:28:44.446Z,3.70
2019-05-18T14:33:47.873Z,4.25
2019-05-18T14:38:51.311Z,4.40
2019-05-18T14:43:54.744Z,6.28
2019-05-18T14:48:58.152Z,4.00
2019-05-18T14:54:01.578Z,8.28
2019-05-18T14:59:05.071Z,3.92
2019-05-18T15:04:08.461Z,4.05
2019-05-18T15:09:11.886Z,3.52
2019-05-18T15:14:15.850Z,4.33
2019-05-18T15:19:19.274Z,3.25
2019-05-18T15:24:23.008Z,4.47
2019-05-18T15:29:26.406Z,4.45
2019-05-18T15:34:29.833Z,2.90
2019-05-18T15:39:33.230Z,4.90
2019-05-18T15:44:36.968Z,2.90
2019-05-18T15:49:40.356Z,3.40
2019-05-18T15:54:43.759Z,3.47
2019-05-18T15:59:47.178Z,2.90
2019-05-18T16:04:50.689Z,2.77
2019-05-18T16:09:54.064Z,2.55
2019-05-18T16:14:57.781Z,3.12
2019-05-18T16:20:01.214Z,3.52
2019-05-18T16:25:06.649Z,3.22
2019-05-18T16:30:11.774Z,3.42
2019-05-18T16:35:15.606Z,5.12
2019-05-18T16:40:20.080Z,4.10
2019-05-18T16:45:23.474Z,5.45
2019-05-18T16:50:26.880Z,4.62
2019-05-18T16:55:30.365Z,4.22
2019-05-18T17:00:33.790Z,5.00
2019-05-18T17:05:37.256Z,4.80
2019-05-18T17:10:40.970Z,2.92
2019-05-18T17:15:45.498Z,4.15
2019-05-18T17:20:48.942Z,4.50
2019-05-18T17:25:52.352Z,2.70
2019-05-18T17:30:55.784Z,2.37
2019-05-18T17:36:00.638Z,3.02
2019-05-18T17:41:04.469Z,2.90
2019-05-18T17:46:07.927Z,4.30
2019-05-18T17:51:11.317Z,2.67
2019-05-18T17:56:14.779Z,3.10
2019-05-18T18:01:18.178Z,3.10
2019-05-18T18:06:21.601Z,3.12
2019-05-18T18:11:25.476Z,2.47
2019-05-18T18:16:29.119Z,9.23
2019-05-18T18:21:32.522Z,4.17
2019-05-18T18:26:35.988Z,3.02
2019-05-18T18:31:39.415Z,6.17
2019-05-18T18:36:42.843Z,2.90
2019-05-18T18:41:46.224Z,3.70
2019-05-18T18:46:49.621Z,3.08
2019-05-18T18:51:53.007Z,4.15
2019-05-18T18:56:56.466Z,2.90
2019-05-18T19:01:59.898Z,4.80
2019-05-18T19:07:03.295Z,5.42
2019-05-18T19:12:06.708Z,4.42
2019-05-18T19:17:10.105Z,5.28
2019-05-18T19:22:13.517Z,3.60
2019-05-18T19:27:16.901Z,2.95
2019-05-18T19:32:20.299Z,3.33
2019-05-18T19:37:26.368Z,4.92
2019-05-18T19:42:28.825Z,4.60
2019-05-18T19:47:32.255Z,7.15
2019-05-18T19:52:35.754Z,4.37
2019-05-18T19:57:39.120Z,4.92
2019-05-18T20:02:42.590Z,6.53
2019-05-18T20:07:46.007Z,4.65
2019-05-18T20:12:49.569Z,3.75
2019-05-18T20:17:53.001Z,5.20
2019-05-18T20:22:56.725Z,4.20
2019-05-18T20:28:00.123Z,3.40
2019-05-18T20:33:03.533Z,3.33
2019-05-18T20:38:06.926Z,3.75
2019-05-18T20:43:10.318Z,5.62
2019-05-18T20:48:16.807Z,4.97
2019-05-18T20:53:18.858Z,4.83
2019-05-18T20:58:22.281Z,4.85
2019-05-18T21:03:25.718Z,5.30
2019-05-18T21:08:29.126Z,4.83
2019-05-18T21:13:32.517Z,6.42
2019-05-18T21:18:36.235Z,4.37
2019-05-18T21:23:39.706Z,3.50
2019-05-18T21:28:56.207Z,4.60
2019-05-18T21:33:49.026Z,4.15
2019-05-18T21:38:52.753Z,3.52
2019-05-18T21:43:56.144Z,5.72
2019-05-18T21:48:59.551Z,4.72
2019-05-18T21:54:03.023Z,4.62
2019-05-18T21:59:11.606Z,4.12
2019-05-18T22:04:11.661Z,5.72
2019-05-18T22:09:15.053Z,3.98
2019-05-18T22:14:18.817Z,6.53
2019-05-18T22:19:22.630Z,5.85
2019-05-18T22:24:26.340Z,5.45
2019-05-18T22:29:29.736Z,5.03
2019-05-18T22:34:33.194Z,6.67
2019-05-18T22:39:37.752Z,5.97
2019-05-18T22:44:41.164Z,5.28
2019-05-18T22:49:44.611Z,4.67
2019-05-18T22:54:47.983Z,4.42
2019-05-18T22:59:51.366Z,6.45
2019-05-18T23:04:54.812Z,7.20
2019-05-18T23:09:58.528Z,8.40
2019-05-18T23:15:01.949Z,7.12
2019-05-18T23:20:06.376Z,6.72
2019-05-18T23:25:10.213Z,6.33
2019-05-18T23:30:13.936Z,7.55
2019-05-18T23:35:17.417Z,6.12
2019-05-18T23:40:20.889Z,6.62
2019-05-18T23:45:24.462Z,7.15
2019-05-18T23:50:27.892Z,7.75
2019-05-18T23:55:31.353Z,7.45
